Time;durP1;ratioP1;P1;durP2;ratioP2;P2;SDS_P1;SDS_P2;PMS_P1;PMS_P2;Temp;Humidity;BMP_temperature;BMP_pressure;BME280_temperature;BME280_humidity;BME280_pressure;Samples;Min_cycle;Max_cycle;Signal;HPM_P1;HPM_P2
2024/04/20 00:00:23;;;;;;;3.60;2.90;;;5.00;99.90;;;;;;6894542;25;20470;-59
2024/04/20 00:03:37;;;;;;;3.33;3.03;;;5.00;99.90;;;;;;6893729;25;20453;-58
2024/04/20 00:06:46;;;;;;;3.50;3.30;;;5.00;99.90;;;;;;6894036;25;20450;-59
2024/04/20 00:09:57;;;;;;;6.37;3.60;;;5.00;99.90;;;;;;6894135;25;20473;-59
2024/04/20 00:13:09;;;;;;;4.20;3.80;;;5.00;99.90;;;;;;6895550;25;20460;-60
2024/04/20 00:16:16;;;;;;;3.30;3.00;;;5.00;99.90;;;;;;6894520;25;20505;-60
2024/04/20 00:19:24;;;;;;;3.10;2.90;;;4.90;99.90;;;;;;6894849;25;21009;-59
2024/04/20 00:22:37;;;;;;;4.00;3.60;;;4.90;99.90;;;;;;6893949;25;21138;-59
2024/04/20 00:25:46;;;;;;;3.73;3.40;;;4.90;99.90;;;;;;6894425;25;20559;-59
2024/04/20 00:29:12;;;;;;;3.50;3.20;;;4.90;99.90;;;;;;6893923;25;20461;-59
2024/04/20 00:32:20;;;;;;;3.47;3.17;;;4.90;99.90;;;;;;6893601;25;20446;-60
2024/04/20 00:35:27;;;;;;;3.60;3.30;;;4.90;99.90;;;;;;6879845;25;20466;-59
2024/04/20 00:38:43;;;;;;;3.80;3.10;;;4.90;99.90;;;;;;6894090;25;20807;-60
2024/04/20 00:41:51;;;;;;;3.90;3.60;;;4.90;99.90;;;;;;6894463;25;20462;-59
2024/04/20 00:45:04;;;;;;;3.73;3.50;;;4.90;99.90;;;;;;6894471;25;20510;-60
2024/04/20 00:48:14;;;;;;;3.43;3.13;;;4.90;99.90;;;;;;6893489;25;20520;-59
2024/04/20 00:51:24;;;;;;;4.60;3.60;;;4.90;99.90;;;;;;6886962;25;20465;-59
2024/04/20 00:54:36;;;;;;;3.90;3.50;;;4.90;99.90;;;;;;6894020;25;20972;-59
2024/04/20 00:57:43;;;;;;;4.10;3.60;;;5.00;99.90;;;;;;6893051;25;20565;-60
2024/04/20 01:01:03;;;;;;;3.37;3.07;;;5.00;99.90;;;;;;6891034;25;20477;-59
2024/04/20 01:04:10;;;;;;;3.40;3.20;;;5.00;99.90;;;;;;6892643;25;20548;-59
2024/04/20 01:07:18;;;;;;;3.60;3.40;;;5.00;99.90;;;;;;6893419;25;20461;-59
2024/04/20 01:10:26;;;;;;;3.87;3.10;;;5.10;99.90;;;;;;6893033;25;20520;-59
2024/04/20 01:13:34;;;;;;;3.47;3.10;;;5.10;99.90;;;;;;6893370;25;20926;-59
2024/04/20 01:16:58;;;;;;;3.83;3.53;;;5.10;99.90;;;;;;6880743;25;20517;-58
2024/04/20 01:20:13;;;;;;;3.37;3.03;;;5.20;99.90;;;;;;6887389;25;20532;-55
2024/04/20 01:23:29;;;;;;;3.63;3.33;;;5.10;99.90;;;;;;6879577;25;21188;-56
2024/04/20 01:26:42;;;;;;;5.83;3.20;;;5.10;99.90;;;;;;6892886;25;20579;-56
2024/04/20 01:29:50;;;;;;;3.30;3.10;;;5.20;99.90;;;;;;6873415;25;21031;-55
2024/04/20 01:33:00;;;;;;;3.50;2.83;;;5.30;99.90;;;;;;6848286;25;20887;-55
2024/04/20 01:36:10;;;;;;;3.47;3.17;;;5.30;99.90;;;;;;6892736;25;20524;-55
2024/04/20 01:39:20;;;;;;;3.20;2.90;;;5.40;99.90;;;;;;6892387;25;20473;-55
2024/04/20 01:42:35;;;;;;;3.30;2.67;;;5.40;99.90;;;;;;6892041;25;21161;-55
2024/04/20 01:45:44;;;;;;;4.77;3.63;;;5.30;99.90;;;;;;6891053;25;20890;-55
2024/04/20 01:48:53;;;;;;;4.17;3.30;;;5.40;99.90;;;;;;6892398;25;20477;-55
2024/04/20 01:51:59;;;;;;;4.90;4.50;;;5.40;99.90;;;;;;6891656;25;20465;-55
2024/04/20 01:55:17;;;;;;;5.20;4.70;;;5.50;99.90;;;;;;6889906;25;20485;-55
2024/04/20 01:58:31;;;;;;;3.87;3.43;;;5.60;99.90;;;;;;6890927;25;20602;-55
2024/04/20 02:01:41;;;;;;;4.23;3.73;;;5.60;99.90;;;;;;6890669;25;20465;-55
2024/04/20 02:04:51;;;;;;;3.43;3.20;;;5.50;99.90;;;;;;6891170;25;20534;-55
2024/04/20 02:07:58;;;;;;;3.57;3.27;;;5.20;99.90;;;;;;6891685;25;20982;-55
2024/04/20 02:11:14;;;;;;;5.77;4.30;;;5.20;99.90;;;;;;6877957;25;20461;-56
2024/04/20 02:14:29;;;;;;;4.73;2.40;;;5.20;99.90;;;;;;6889131;25;20812;-56
2024/04/20 02:17:38;;;;;;;3.27;2.97;;;5.20;99.90;;;;;;6890628;25;20517;-55
2024/04/20 02:20:51;;;;;;;6.80;3.83;;;5.10;99.90;;;;;;6890580;25;20603;-54
2024/04/20 02:24:00;;;;;;;3.93;3.63;;;5.00;99.90;;;;;;6890439;25;20453;-55
2024/04/20 02:27:14;;;;;;;4.10;3.80;;;5.20;99.90;;;;;;6884491;25;20449;-57
2024/04/20 02:30:36;;;;;;;4.50;4.20;;;5.20;99.90;;;;;;6889534;25;20465;-54
2024/04/20 02:33:45;;;;;;;3.17;2.97;;;5.30;99.90;;;;;;6857094;25;20461;-56
2024/04/20 02:37:09;;;;;;;3.07;2.87;;;5.20;99.90;;;;;;6889685;25;20485;-56
2024/04/20 02:43:48;;;;;;;5.27;3.80;;;4.90;99.90;;;;;;6889861;25;20464;-55
2024/04/20 02:47:05;;;;;;;4.47;3.53;;;5.00;99.90;;;;;;6890401;25;20457;-54
2024/04/20 02:50:30;;;;;;;5.00;3.97;;;5.00;99.90;;;;;;6887592;25;20525;-55
2024/04/20 02:53:39;;;;;;;3.60;3.30;;;4.80;99.90;;;;;;6886089;25;20673;-56
2024/04/20 02:56:46;;;;;;;3.60;3.03;;;4.60;99.90;;;;;;6881046;25;20965;-55
2024/04/20 02:59:57;;;;;;;4.43;4.03;;;4.60;99.90;;;;;;6846035;25;20526;-55
2024/04/20 03:03:14;;;;;;;3.73;3.53;;;4.50;99.90;;;;;;6848207;25;20712;-55
2024/04/20 03:06:23;;;;;;;4.40;4.10;;;4.50;99.90;;;;;;6890685;25;20552;-58
2024/04/20 03:09:29;;;;;;;4.20;3.90;;;4.60;99.90;;;;;;6874313;25;20507;-56
2024/04/20 03:12:39;;;;;;;4.87;4.17;;;4.60;99.90;;;;;;6847731;25;20502;-58
2024/04/20 03:15:46;;;;;;;4.53;3.93;;;4.60;99.90;;;;;;6891038;25;20604;-57
2024/04/20 03:19:09;;;;;;;4.10;3.70;;;4.50;99.90;;;;;;6894204;25;20481;-58
2024/04/20 03:22:20;;;;;;;5.70;3.80;;;4.40;99.90;;;;;;6894194;25;20550;-58
2024/04/20 03:25:29;;;;;;;3.70;3.40;;;4.30;99.90;;;;;;6889999;25;20518;-57
2024/04/20 03:28:37;;;;;;;3.57;3.27;;;4.20;99.90;;;;;;6890607;25;20469;-57
2024/04/20 03:31:46;;;;;;;3.60;3.40;;;4.10;99.90;;;;;;6894788;25;20466;-57
2024/04/20 03:35:01;;;;;;;6.50;4.03;;;4.10;99.90;;;;;;6892185;25;20457;-57
2024/04/20 03:38:21;;;;;;;4.20;3.90;;;4.00;99.90;;;;;;6892529;25;20574;-57
2024/04/20 03:41:31;;;;;;;4.00;3.70;;;3.90;99.90;;;;;;6894808;25;20607;-57
2024/04/20 03:44:38;;;;;;;3.97;3.60;;;3.80;99.90;;;;;;6889366;25;20489;-58
2024/04/20 03:47:46;;;;;;;3.97;3.57;;;3.80;99.90;;;;;;6890359;25;20465;-56
2024/04/20 03:51:02;;;;;;;5.90;4.17;;;3.70;99.90;;;;;;6894137;25;20457;-57
2024/04/20 03:54:13;;;;;;;5.90;3.90;;;3.70;99.90;;;;;;6885176;25;20567;-56
2024/04/20 03:57:21;;;;;;;4.23;3.93;;;3.60;99.90;;;;;;6895047;25;20669;-58
2024/04/20 04:00:32;;;;;;;4.20;3.80;;;3.50;99.90;;;;;;6866617;25;20684;-58
2024/04/20 04:03:46;;;;;;;4.20;3.80;;;3.50;99.90;;;;;;6852263;25;21214;-58
2024/04/20 04:07:06;;;;;;;3.80;3.40;;;3.50;99.90;;;;;;6889822;25;20461;-57
2024/04/20 04:10:18;;;;;;;3.70;3.40;;;3.40;99.90;;;;;;6892015;25;20503;-57
2024/04/20 04:13:27;;;;;;;3.93;3.63;;;3.50;99.90;;;;;;6892486;25;20556;-57
2024/04/20 04:16:48;;;;;;;4.90;4.40;;;3.50;99.90;;;;;;6894391;25;20570;-57
2024/04/20 04:19:55;;;;;;;5.53;4.07;;;3.50;99.90;;;;;;6893100;25;20956;-57
2024/04/20 04:23:05;;;;;;;6.07;5.07;;;3.50;99.90;;;;;;6894129;25;20529;-57
2024/04/20 04:26:12;;;;;;;4.93;4.43;;;3.60;99.90;;;;;;6893539;25;20512;-57
2024/04/20 04:29:23;;;;;;;4.43;4.03;;;3.70;99.90;;;;;;6891820;25;20802;-56
2024/04/20 04:32:32;;;;;;;8.00;3.60;;;3.70;99.90;;;;;;6893459;25;20453;-56
2024/04/20 04:35:46;;;;;;;4.60;4.20;;;3.80;99.90;;;;;;6893630;25;20762;-57
2024/04/20 04:39:02;;;;;;;4.20;3.90;;;4.00;99.90;;;;;;6892699;25;21053;-56
2024/04/20 04:42:09;;;;;;;3.47;3.17;;;4.10;99.90;;;;;;6893665;25;20562;-57
2024/04/20 04:45:17;;;;;;;3.50;3.20;;;4.40;99.90;;;;;;6893866;25;20567;-57
2024/04/20 04:48:26;;;;;;;5.73;3.57;;;4.70;99.90;;;;;;6885281;25;20457;-57
2024/04/20 04:51:35;;;;;;;3.57;3.30;;;4.90;99.90;;;;;;6891789;25;20445;-57
2024/04/20 04:54:48;;;;;;;3.83;3.00;;;5.70;99.90;;;;;;6892220;25;20457;-57
2024/04/20 04:58:08;;;;;;;4.13;2.73;;;7.40;99.90;;;;;;6892022;25;20438;-57
2024/04/20 05:01:18;;;;;;;2.93;2.63;;;9.60;99.90;;;;;;6893291;25;20529;-57
2024/04/20 05:04:32;;;;;;;3.20;2.50;;;11.80;92.90;;;;;;6893052;25;20505;-57
2024/04/20 05:07:45;;;;;;;3.73;2.87;;;13.60;82.20;;;;;;6891762;25;20511;-58
2024/04/20 05:11:09;;;;;;;7.50;6.10;;;15.00;71.20;;;;;;6891528;25;20578;-58
2024/04/20 05:14:18;;;;;;;15.73;10.63;;;16.60;60.50;;;;;;6892807;25;20524;-58
2024/04/20 05:17:34;;;;;;;15.73;9.07;;;17.80;55.00;;;;;;6891916;25;20827;-57
2024/04/20 05:20:42;;;;;;;8.07;5.93;;;19.10;50.20;;;;;;6888603;25;20562;-57
2024/04/20 05:23:50;;;;;;;4.50;4.07;;;20.20;46.20;;;;;;6890501;25;20676;-58
2024/04/20 05:27:17;;;;;;;3.13;2.67;;;21.40;43.00;;;;;;6890300;25;20287;-58
2024/04/20 05:30:25;;;;;;;2.90;2.33;;;22.50;39.50;;;;;;6876391;25;20252;-58
2024/04/20 05:33:34;;;;;;;2.93;2.50;;;23.60;36.20;;;;;;6865828;25;20276;-58
2024/04/20 05:36:48;;;;;;;2.57;2.40;;;24.40;33.80;;;;;;6874136;25;20653;-58
2024/04/20 05:39:54;;;;;;;7.43;2.40;;;25.40;32.10;;;;;;6872223;25;20236;-57
2024/04/20 05:43:10;;;;;;;2.33;2.13;;;26.30;29.70;;;;;;6862454;25;21031;-60
2024/04/20 05:46:23;;;;;;;2.10;1.90;;;26.60;28.70;;;;;;6872492;25;21119;-60
2024/04/20 05:49:33;;;;;;;2.20;1.43;;;26.80;27.70;;;;;;6860938;25;20240;-60
2024/04/20 05:52:45;;;;;;;1.60;1.47;;;27.30;26.70;;;;;;6885999;25;20240;-60
2024/04/20 05:55:54;;;;;;;1.40;1.20;;;28.30;26.00;;;;;;6891471;25;20327;-60
2024/04/20 05:59:06;;;;;;;1.27;0.50;;;29.60;24.40;;;;;;6892354;25;20293;-60
2024/04/20 06:02:13;;;;;;;0.60;0.30;;;30.30;22.40;;;;;;6890780;25;20240;-60
2024/04/20 06:05:22;;;;;;;0.70;0.30;;;30.60;21.20;;;;;;6891295;25;20323;-60
2024/04/20 06:08:32;;;;;;;3.00;0.40;;;30.70;20.40;;;;;;6890805;25;21134;-60
2024/04/20 06:11:41;;;;;;;0.80;0.50;;;30.30;20.60;;;;;;6865042;25;20218;-59
2024/04/20 06:15:07;;;;;;;0.90;0.60;;;29.80;20.70;;;;;;6845135;26;20268;-60
2024/04/20 06:18:15;;;;;;;1.47;0.90;;;29.20;20.50;;;;;;6867712;25;20228;-60
2024/04/20 06:21:22;;;;;;;0.90;0.70;;;28.80;20.70;;;;;;6881104;25;20873;-59
2024/04/20 06:24:41;;;;;;;0.90;0.40;;;28.70;20.80;;;;;;6891094;25;20236;-60
2024/04/20 06:27:51;;;;;;;0.70;0.43;;;30.20;20.40;;;;;;6890961;25;20224;-61
2024/04/20 06:31:09;;;;;;;0.80;0.35;;;32.20;18.90;;;;;;6894448;25;20282;-61
2024/04/20 06:34:23;;;;;;;1.05;0.50;;;34.20;17.30;;;;;;6894022;25;20229;-61
2024/04/20 06:37:33;;;;;;;0.90;0.50;;;35.90;15.60;;;;;;6895115;25;20244;-60
2024/04/20 06:40:39;;;;;;;0.90;0.50;;;35.20;14.80;;;;;;6895180;25;20393;-60
2024/04/20 06:43:57;;;;;;;1.00;0.50;;;33.80;15.50;;;;;;6890246;25;20216;-61
2024/04/20 06:47:10;;;;;;;0.88;0.57;;;33.80;15.60;;;;;;6894861;25;20224;-60
2024/04/20 06:50:21;;;;;;;0.80;0.45;;;35.20;15.00;;;;;;6895485;25;20262;-60
2024/04/20 06:53:29;;;;;;;0.60;0.25;;;37.00;14.00;;;;;;6895156;25;20262;-60
2024/04/20 06:56:45;;;;;;;0.82;0.30;;;38.50;13.00;;;;;;6893095;25;20302;-60
2024/04/20 06:59:59;;;;;;;0.63;0.40;;;39.90;11.90;;;;;;6895000;25;20328;-60
2024/04/20 07:03:12;;;;;;;0.70;0.30;;;41.10;10.90;;;;;;6895681;25;20321;-62
2024/04/20 07:06:30;;;;;;;1.00;0.60;;;42.10;10.10;;;;;;6896210;25;20225;-62
2024/04/20 07:09:38;;;;;;;1.23;0.40;;;42.70;9.60;;;;;;6894905;25;20283;-63
2024/04/20 07:12:48;;;;;;;2.90;0.50;;;43.70;8.80;;;;;;6882033;25;20728;-61
2024/04/20 07:15:59;;;;;;;0.80;0.50;;;43.90;8.60;;;;;;6894811;25;20228;-61
2024/04/20 07:19:11;;;;;;;0.90;0.43;;;44.10;8.10;;;;;;6895110;25;20263;-62
2024/04/20 07:22:26;;;;;;;0.68;0.40;;;44.80;8.00;;;;;;6895027;25;20374;-64
2024/04/20 07:25:34;;;;;;;0.75;0.50;;;45.60;7.40;;;;;;6894690;25;20267;-61
2024/04/20 07:28:47;;;;;;;0.65;0.30;;;46.40;6.80;;;;;;6893833;25;21028;-61
2024/04/20 07:31:56;;;;;;;1.15;0.57;;;47.10;6.10;;;;;;6893803;25;20644;-60
2024/04/20 07:35:12;;;;;;;1.15;0.50;;;47.70;6.00;;;;;;6892945;25;20304;-60
2024/04/20 07:38:25;;;;;;;0.80;0.40;;;48.60;5.40;;;;;;6895870;25;20267;-60
2024/04/20 07:41:33;;;;;;;0.77;0.40;;;48.70;5.00;;;;;;6894568;25;20298;-61
2024/04/20 07:44:41;;;;;;;1.02;0.73;;;48.80;4.60;;;;;;6894574;25;20227;-60
2024/04/20 07:47:49;;;;;;;0.90;0.45;;;48.90;4.30;;;;;;6894742;25;20230;-61
2024/04/20 07:51:02;;;;;;;1.25;0.52;;;48.90;4.40;;;;;;6894778;25;20240;-60
2024/04/20 07:54:14;;;;;;;0.98;0.30;;;49.40;4.20;;;;;;6891402;25;20213;-61
2024/04/20 07:57:23;;;;;;;0.60;0.40;;;49.80;3.60;;;;;;6847520;25;20223;-60
2024/04/20 08:00:33;;;;;;;0.75;0.40;;;49.80;3.80;;;;;;6847768;25;20258;-61
2024/04/20 08:03:41;;;;;;;0.70;0.50;;;50.20;3.00;;;;;;6839314;25;20221;-60
2024/04/20 08:07:09;;;;;;;0.60;0.35;;;48.30;2.90;;;;;;6846757;25;20934;-61
2024/04/20 08:10:28;;;;;;;2.17;0.57;;;46.80;3.60;;;;;;6863985;25;20817;-60
2024/04/20 08:13:44;;;;;;;2.00;0.52;;;46.30;4.10;;;;;;6894285;25;20225;-61
2024/04/20 08:16:51;;;;;;;0.70;0.40;;;45.80;4.10;;;;;;6893460;25;20378;-60
2024/04/20 08:19:58;;;;;;;0.55;0.30;;;45.80;4.20;;;;;;6893792;25;20267;-61
2024/04/20 08:23:13;;;;;;;1.00;0.80;;;45.20;4.50;;;;;;6891697;25;20292;-61
2024/04/20 08:26:22;;;;;;;2.30;0.50;;;43.70;4.80;;;;;;6893372;25;20224;-61
2024/04/20 08:29:37;;;;;;;0.90;0.32;;;42.80;4.90;;;;;;6891040;25;20244;-60
2024/04/20 08:32:46;;;;;;;0.60;0.40;;;42.90;5.10;;;;;;6894237;25;20220;-60
2024/04/20 08:35:58;;;;;;;0.70;0.40;;;43.30;4.90;;;;;;6872135;25;20271;-61
2024/04/20 08:39:07;;;;;;;0.77;0.47;;;43.10;5.10;;;;;;6875754;25;20271;-60
2024/04/20 08:42:27;;;;;;;0.70;0.43;;;43.00;5.10;;;;;;6859904;25;20504;-61
2024/04/20 08:45:38;;;;;;;0.70;0.30;;;42.90;5.50;;;;;;6873080;25;20296;-60
2024/04/20 08:48:54;;;;;;;0.77;0.50;;;43.50;5.10;;;;;;6871996;25;20779;-61
2024/04/20 08:52:00;;;;;;;0.60;0.32;;;43.70;5.10;;;;;;6873201;25;20293;-60
2024/04/20 08:55:16;;;;;;;0.80;0.30;;;43.70;5.20;;;;;;6865733;25;20266;-60
2024/04/20 08:58:23;;;;;;;1.02;0.30;;;42.60;5.30;;;;;;6881010;25;20229;-60
2024/04/20 09:01:39;;;;;;;0.90;0.57;;;40.80;5.90;;;;;;6866091;25;20233;-60
2024/04/20 09:04:51;;;;;;;1.20;0.60;;;39.30;6.80;;;;;;6882486;25;20271;-61
2024/04/20 09:11:20;;;;;;;0.70;0.30;;;37.10;7.90;;;;;;6893198;25;20316;-61
2024/04/20 09:14:36;;;;;;;1.40;0.30;;;36.60;8.10;;;;;;6860245;25;20732;-61
2024/04/20 09:17:46;;;;;;;1.13;0.30;;;36.70;8.20;;;;;;6892060;25;20344;-62
2024/04/20 09:20:54;;;;;;;0.90;0.40;;;36.30;8.20;;;;;;6891684;25;20338;-61
2024/04/20 09:24:13;;;;;;;1.00;0.40;;;35.40;8.40;;;;;;6868621;25;20232;-61
2024/04/20 09:27:37;;;;;;;2.42;0.40;;;34.30;9.30;;;;;;6875180;25;20234;-62
2024/04/20 09:30:44;;;;;;;0.82;0.50;;;33.40;10.00;;;;;;6861293;25;20551;-61
2024/04/20 09:33:55;;;;;;;0.80;0.50;;;33.20;10.00;;;;;;6873078;25;20236;-62
2024/04/20 09:37:09;;;;;;;0.77;0.40;;;32.80;10.50;;;;;;6889791;25;20228;-61
2024/04/20 09:40:23;;;;;;;0.60;0.20;;;32.10;10.50;;;;;;6872468;25;20300;-61
2024/04/20 09:43:45;;;;;;;1.98;0.45;;;31.80;10.80;;;;;;6846714;25;20241;-61
2024/04/20 09:46:54;;;;;;;0.80;0.43;;;31.00;11.10;;;;;;6870296;25;20992;-61
2024/04/20 09:50:10;;;;;;;1.20;0.38;;;30.00;11.60;;;;;;6856497;25;20237;-61
2024/04/20 09:53:29;;;;;;;0.60;0.30;;;29.40;12.10;;;;;;6858202;25;20313;-60
2024/04/20 09:56:41;;;;;;;0.70;0.30;;;28.40;12.30;;;;;;6862429;25;20295;-60
2024/04/20 09:59:53;;;;;;;0.60;0.27;;;28.10;13.10;;;;;;6874332;25;20291;-62
2024/04/20 10:03:08;;;;;;;0.60;0.30;;;28.50;13.30;;;;;;6890540;25;20228;-61
2024/04/20 10:06:28;;;;;;;1.60;0.33;;;28.80;13.00;;;;;;6895653;25;20680;-62
2024/04/20 10:09:38;;;;;;;1.53;0.30;;;29.20;12.80;;;;;;6894639;25;20244;-62
2024/04/20 10:12:49;;;;;;;0.80;0.40;;;29.30;12.30;;;;;;6895557;25;20292;-60
2024/04/20 10:16:14;;;;;;;0.70;0.33;;;29.50;12.30;;;;;;6895103;25;20335;-61
2024/04/20 10:19:21;;;;;;;0.90;0.60;;;28.50;12.80;;;;;;6877166;25;20233;-61
2024/04/20 10:22:46;;;;;;;0.80;0.60;;;27.50;13.50;;;;;;6849137;25;20229;-60
2024/04/20 10:25:57;;;;;;;0.83;0.30;;;27.40;13.40;;;;;;6871983;25;20279;-61
2024/04/20 10:29:09;;;;;;;0.83;0.30;;;26.60;13.80;;;;;;6893179;25;20665;-61
2024/04/20 10:32:31;;;;;;;0.70;0.30;;;26.80;13.90;;;;;;6873670;25;20240;-61
2024/04/20 10:35:38;;;;;;;0.80;0.33;;;27.50;13.50;;;;;;6894388;25;20671;-60
2024/04/20 10:38:47;;;;;;;2.17;0.50;;;27.60;13.10;;;;;;6878238;25;20233;-60
2024/04/20 10:42:06;;;;;;;0.87;0.40;;;27.40;13.70;;;;;;6849046;25;20245;-62
2024/04/20 10:45:20;;;;;;;1.60;0.60;;;27.80;13.90;;;;;;6888305;25;21076;-60
2024/04/20 10:48:35;;;;;;;0.67;0.30;;;29.20;13.20;;;;;;6878710;25;20280;-60
2024/04/20 10:51:59;;;;;;;0.93;0.40;;;30.00;12.00;;;;;;6842597;25;20229;-61
2024/04/20 10:55:14;;;;;;;1.60;0.30;;;30.40;10.80;;;;;;6849839;25;20225;-61
2024/04/20 10:58:29;;;;;;;1.13;0.20;;;30.60;12.00;;;;;;6871123;25;20345;-61
2024/04/20 11:01:38;;;;;;;1.60;1.00;;;29.50;11.80;;;;;;6894214;25;20784;-61
2024/04/20 11:05:02;;;;;;;1.47;0.60;;;28.90;12.50;;;;;;6891586;25;20287;-60
2024/04/20 11:08:16;;;;;;;0.90;0.70;;;28.30;12.20;;;;;;6894130;25;20226;-60
2024/04/20 11:11:23;;;;;;;1.37;0.90;;;27.00;12.80;;;;;;6845208;26;20276;-61
2024/04/20 11:14:34;;;;;;;1.80;0.77;;;26.30;13.90;;;;;;6886762;25;20255;-61
2024/04/20 11:17:44;;;;;;;0.90;0.73;;;25.80;14.30;;;;;;6865886;25;20346;-60
2024/04/20 11:20:57;;;;;;;1.13;0.63;;;26.20;14.40;;;;;;6859003;25;20248;-60
2024/04/20 11:24:06;;;;;;;0.60;0.30;;;26.70;14.30;;;;;;6892796;25;20224;-63
2024/04/20 11:27:15;;;;;;;1.00;0.57;;;28.10;12.70;;;;;;6894781;25;20344;-64
2024/04/20 11:30:23;;;;;;;1.50;1.00;;;28.20;12.50;;;;;;6893741;25;20239;-63
2024/04/20 11:33:33;;;;;;;1.70;1.10;;;28.80;11.50;;;;;;6892643;25;20244;-62
2024/04/20 11:36:44;;;;;;;0.95;0.30;;;29.20;11.70;;;;;;6894601;25;20332;-63
2024/04/20 11:40:11;;;;;;;2.10;0.43;;;29.00;11.20;;;;;;6894384;25;20332;-61
2024/04/20 11:43:24;;;;;;;1.27;0.97;;;28.20;11.30;;;;;;6894550;25;20228;-63
2024/04/20 11:46:40;;;;;;;0.75;0.40;;;28.80;11.50;;;;;;6894880;25;20239;-63
2024/04/20 11:49:57;;;;;;;1.10;0.90;;;28.90;12.40;;;;;;6894366;25;20244;-63
2024/04/20 11:57:04;;;;;;;0.90;0.50;;;29.60;12.70;;;;;;6792623;26;20238;-62
2024/04/20 12:00:15;;;;;;;1.15;0.70;;;30.50;12.30;;;;;;6797768;26;20417;-64
2024/04/20 12:03:25;;;;;;;1.38;0.80;;;30.60;11.90;;;;;;6793092;26;20254;-62
2024/04/20 12:06:32;;;;;;;0.70;0.30;;;30.30;12.50;;;;;;6787684;26;21115;-64
2024/04/20 12:09:49;;;;;;;0.80;0.40;;;29.60;12.60;;;;;;6797561;26;20238;-62
2024/04/20 12:13:00;;;;;;;0.75;0.45;;;29.50;13.00;;;;;;6797641;26;20230;-62
2024/04/20 12:16:10;;;;;;;0.80;0.38;;;29.30;12.80;;;;;;6876314;25;20241;-61
2024/04/20 12:19:17;;;;;;;1.40;0.30;;;29.20;12.40;;;;;;6871300;25;20337;-62
2024/04/20 12:22:27;;;;;;;0.70;0.30;;;28.50;13.00;;;;;;6864161;25;20240;-64
2024/04/20 12:25:40;;;;;;;0.80;0.50;;;28.10;13.70;;;;;;6869860;25;20341;-63
2024/04/20 12:28:56;;;;;;;0.93;0.40;;;27.60;14.50;;;;;;6863141;25;20371;-63
2024/04/20 12:32:10;;;;;;;2.00;0.97;;;27.40;14.80;;;;;;6867958;25;20305;-62
2024/04/20 12:35:21;;;;;;;3.00;0.70;;;27.30;14.40;;;;;;6867640;25;20241;-65
2024/04/20 12:38:28;;;;;;;0.80;0.50;;;26.90;14.40;;;;;;6844253;25;20826;-63
2024/04/20 12:41:47;;;;;;;3.03;1.10;;;26.40;14.70;;;;;;6891489;25;20217;-63
2024/04/20 12:45:02;;;;;;;0.90;0.60;;;26.20;16.00;;;;;;6847090;26;20329;-63
2024/04/20 12:48:20;;;;;;;1.70;0.77;;;26.00;15.60;;;;;;6828341;25;20228;-63
2024/04/20 12:51:28;;;;;;;3.00;1.20;;;25.90;15.60;;;;;;6894051;25;20550;-63
2024/04/20 12:54:40;;;;;;;2.53;1.73;;;25.60;16.20;;;;;;6892140;25;20328;-64
2024/04/20 12:57:57;;;;;;;1.33;0.60;;;25.40;16.60;;;;;;6892345;25;20705;-64
2024/04/20 13:01:08;;;;;;;2.47;1.23;;;25.00;17.10;;;;;;6892538;25;20690;-62
2024/04/20 13:04:14;;;;;;;2.80;1.43;;;24.80;16.80;;;;;;6892333;25;20696;-62
2024/04/20 13:07:22;;;;;;;1.90;1.00;;;24.50;17.00;;;;;;6889885;25;20390;-63
2024/04/20 13:10:28;;;;;;;5.53;2.67;;;24.20;17.10;;;;;;6892775;25;20274;-64
2024/04/20 13:13:42;;;;;;;1.93;1.17;;;23.90;17.50;;;;;;6892471;25;20212;-64
2024/04/20 13:16:50;;;;;;;2.33;1.40;;;23.70;17.50;;;;;;6890067;25;20225;-62
2024/04/20 13:19:59;;;;;;;3.80;1.37;;;23.60;18.00;;;;;;6892455;25;20348;-60
2024/04/20 13:23:08;;;;;;;1.10;0.57;;;23.60;18.30;;;;;;6892830;25;20236;-62
2024/04/20 13:26:19;;;;;;;2.67;2.07;;;23.60;18.30;;;;;;6891861;25;20301;-63
2024/04/20 13:29:54;;;;;;;2.80;1.60;;;23.60;18.30;;;;;;6890870;25;20364;-63
2024/04/20 13:33:03;;;;;;;1.73;0.80;;;23.30;18.20;;;;;;6891831;25;20232;-63
2024/04/20 13:36:21;;;;;;;2.73;1.40;;;23.10;17.30;;;;;;6890307;25;20229;-62
2024/04/20 13:39:30;;;;;;;1.53;1.10;;;22.60;16.90;;;;;;6891033;25;20255;-62
2024/04/20 13:42:39;;;;;;;1.03;0.67;;;22.20;17.10;;;;;;6889885;25;20305;-62
2024/04/20 13:46:00;;;;;;;2.13;0.60;;;21.80;17.60;;;;;;6892531;25;20225;-63
2024/04/20 13:49:11;;;;;;;2.30;0.80;;;21.50;18.50;;;;;;6892476;25;20329;-63
2024/04/20 13:52:23;;;;;;;1.00;0.73;;;20.90;18.80;;;;;;6893363;25;20224;-62
2024/04/20 13:55:36;;;;;;;2.93;1.30;;;20.70;19.70;;;;;;6891983;25;20741;-62
2024/04/20 13:58:49;;;;;;;0.87;0.70;;;20.50;20.10;;;;;;6886183;25;20773;-62
2024/04/20 14:02:02;;;;;;;1.03;0.50;;;20.40;20.30;;;;;;6877476;25;20345;-62
2024/04/20 14:05:08;;;;;;;1.67;0.40;;;20.30;20.40;;;;;;6890653;25;20576;-62
2024/04/20 14:08:19;;;;;;;1.40;0.93;;;20.20;20.20;;;;;;6845550;25;20288;-63
2024/04/20 14:11:27;;;;;;;1.30;1.20;;;20.10;20.60;;;;;;6846119;25;20354;-61
2024/04/20 14:14:39;;;;;;;1.20;0.87;;;20.00;20.90;;;;;;6842475;26;20229;-60
2024/04/20 14:17:49;;;;;;;1.83;1.27;;;19.80;22.00;;;;;;6851904;25;20238;-60
2024/04/20 14:20:59;;;;;;;1.77;0.70;;;19.50;22.70;;;;;;6886301;25;20320;-59
2024/04/20 14:24:06;;;;;;;1.20;0.57;;;19.10;22.70;;;;;;6874883;25;20233;-61
2024/04/20 14:27:14;;;;;;;2.97;1.17;;;18.90;21.30;;;;;;6890295;25;20319;-63
2024/04/20 14:30:27;;;;;;;0.80;0.60;;;18.50;22.00;;;;;;6886052;25;20504;-63
2024/04/20 14:33:41;;;;;;;1.43;0.63;;;18.40;21.80;;;;;;6890131;25;20225;-63
2024/04/20 14:36:47;;;;;;;2.50;1.03;;;18.10;22.20;;;;;;6888504;25;20238;-61
2024/04/20 14:39:54;;;;;;;1.03;0.70;;;17.90;22.10;;;;;;6875493;25;20249;-62
2024/04/20 14:43:02;;;;;;;1.00;0.60;;;17.60;21.90;;;;;;6869683;25;20444;-62
2024/04/20 14:46:11;;;;;;;2.10;0.40;;;17.40;22.90;;;;;;6882940;25;20233;-62
2024/04/20 14:49:22;;;;;;;1.17;0.37;;;17.20;22.80;;;;;;6844244;25;20303;-62
2024/04/20 14:52:37;;;;;;;0.93;0.73;;;17.10;22.90;;;;;;6892738;25;20275;-62
2024/04/20 14:55:44;;;;;;;0.80;0.50;;;17.10;23.30;;;;;;6889882;25;20240;-62
2024/04/20 14:58:53;;;;;;;0.80;0.50;;;17.00;23.40;;;;;;6856627;25;20246;-62
2024/04/20 15:02:01;;;;;;;1.10;0.40;;;16.90;23.90;;;;;;6862322;25;20341;-63
2024/04/20 15:05:13;;;;;;;0.97;0.50;;;16.80;23.60;;;;;;6890901;25;20788;-62
2024/04/20 15:08:24;;;;;;;0.63;0.40;;;16.70;23.90;;;;;;6889250;25;20583;-62
2024/04/20 15:11:31;;;;;;;0.60;0.40;;;16.50;24.30;;;;;;6882315;25;20542;-62
2024/04/20 15:14:37;;;;;;;1.13;0.50;;;16.40;24.10;;;;;;6840899;25;21001;-62
2024/04/20 15:17:44;;;;;;;0.50;0.40;;;16.20;24.60;;;;;;6848344;25;20580;-62
2024/04/20 15:21:00;;;;;;;0.70;0.40;;;16.10;24.80;;;;;;6863990;25;20473;-62
2024/04/20 15:24:10;;;;;;;0.50;0.30;;;16.10;25.20;;;;;;6894903;25;20490;-61
2024/04/20 15:27:24;;;;;;;1.43;0.30;;;16.10;25.40;;;;;;6886899;25;20981;-62
2024/04/20 15:30:43;;;;;;;0.50;0.47;;;16.10;26.00;;;;;;6892715;25;20469;-63
2024/04/20 15:33:52;;;;;;;0.50;0.30;;;16.20;25.70;;;;;;6894097;25;20449;-63
2024/04/20 15:37:06;;;;;;;0.63;0.30;;;16.20;25.70;;;;;;6881380;25;20462;-63
2024/04/20 15:40:14;;;;;;;0.40;0.30;;;16.20;25.90;;;;;;6862774;25;20470;-62
2024/04/20 15:43:24;;;;;;;5.93;0.70;;;16.30;25.90;;;;;;6892641;25;20264;-62
2024/04/20 15:46:30;;;;;;;0.60;0.43;;;16.20;26.10;;;;;;6892893;25;20441;-63
2024/04/20 15:49:44;;;;;;;0.63;0.40;;;16.10;26.50;;;;;;6893483;25;20469;-62
2024/04/20 15:52:57;;;;;;;0.50;0.30;;;16.00;26.60;;;;;;6884850;25;20531;-63
2024/04/20 15:56:06;;;;;;;1.50;0.47;;;15.80;26.70;;;;;;6892611;25;20574;-62
2024/04/20 15:59:15;;;;;;;0.50;0.30;;;15.60;27.00;;;;;;6855525;25;20650;-63
2024/04/20 16:02:25;;;;;;;0.47;0.37;;;15.30;27.50;;;;;;6858522;25;20457;-62
2024/04/20 16:05:31;;;;;;;0.50;0.30;;;15.30;27.80;;;;;;6892766;25;20931;-62
2024/04/20 16:08:46;;;;;;;0.50;0.30;;;15.10;27.80;;;;;;6891978;25;20468;-62
2024/04/20 16:11:52;;;;;;;2.80;2.10;;;15.10;28.50;;;;;;6892899;25;20450;-61
2024/04/20 16:15:02;;;;;;;3.57;2.47;;;15.10;27.80;;;;;;6892877;25;20526;-62
2024/04/20 16:18:09;;;;;;;7.00;4.70;;;15.10;27.10;;;;;;6892396;25;20542;-61
2024/04/20 16:21:20;;;;;;;4.63;1.60;;;15.00;27.10;;;;;;6892347;25;20468;-62
2024/04/20 16:24:35;;;;;;;5.67;2.60;;;14.90;27.60;;;;;;6891991;25;21150;-62
2024/04/20 16:27:47;;;;;;;3.13;1.73;;;14.80;27.70;;;;;;6892058;25;20441;-62
2024/04/20 16:30:59;;;;;;;5.03;2.50;;;14.70;28.10;;;;;;6892426;25;20466;-63
2024/04/20 16:34:07;;;;;;;2.10;1.20;;;14.60;27.70;;;;;;6888578;25;20843;-62
2024/04/20 16:37:15;;;;;;;2.83;1.03;;;14.40;28.00;;;;;;6892680;25;20656;-59
2024/04/20 16:40:27;;;;;;;1.80;1.30;;;14.20;28.30;;;;;;6892601;25;20533;-61
2024/04/20 16:43:35;;;;;;;2.00;1.20;;;14.10;27.80;;;;;;6892916;25;21115;-60
2024/04/20 16:46:49;;;;;;;4.37;1.20;;;14.00;27.90;;;;;;6891721;25;20550;-59
2024/04/20 16:49:58;;;;;;;3.63;1.67;;;13.80;28.10;;;;;;6891853;25;20587;-56
2024/04/20 16:53:02;;;;;;;3.07;1.80;;;13.60;27.60;;;;;;6846257;25;20573;-58